Time;durP1;ratioP1;P1;durP2;ratioP2;P2;SDS_P1;SDS_P2;PMS_P1;PMS_P2;Temp;Humidity;BMP_temperature;BMP_pressure;BME280_temperature;BME280_humidity;BME280_pressure;Samples;Min_cycle;Max_cycle;Signal;HPM_P1;HPM_P2
2024/02/25 00:02:24;;;;;;;;;;;;;;;1.34;61.96;94259.13;4956295;28;20324;-62
2024/02/25 00:04:49;;;;;;;;;;;;;;;1.20;62.25;94255.25;4956688;28;20415;-63
2024/02/25 00:07:14;;;;;;;;;;;;;;;1.27;60.46;94258.09;4958418;28;19918;-63
2024/02/25 00:09:40;;;;;;;;;;;;;;;0.53;60.26;94253.88;4956358;28;19926;-64
2024/02/25 00:12:05;;;;;;;;;;;;;;;0.96;64.30;94257.53;4955938;28;20509;-61
2024/02/25 00:14:30;;;;;;;;;;;;;;;1.00;61.70;94251.97;4955907;28;20418;-64
2024/02/25 00:16:56;;;;;;;;;;;;;;;1.17;63.27;94251.16;4955985;28;19926;-61
2024/02/25 00:19:21;;;;;;;;;;;;;;;1.19;62.65;94246.56;4955697;28;19922;-62
2024/02/25 00:21:46;;;;;;;;;;;;;;;1.30;61.47;94245.47;4954620;28;20068;-64
2024/02/25 00:24:11;;;;;;;;;;;;;;;1.07;57.74;94245.16;4946810;28;20756;-63
2024/02/25 00:26:37;;;;;;;;;;;;;;;0.86;56.06;94248.94;4952447;28;19965;-63
2024/02/25 00:29:02;;;;;;;;;;;;;;;1.00;60.77;94241.50;4953513;28;19926;-63
2024/02/25 00:31:27;;;;;;;;;;;;;;;1.07;59.06;94246.00;4955031;28;19926;-66
2024/02/25 00:33:52;;;;;;;;;;;;;;;1.33;63.10;94242.53;4955206;28;20156;-63
2024/02/25 00:36:17;;;;;;;;;;;;;;;1.36;63.07;94249.28;4954705;28;20636;-63
2024/02/25 00:38:43;;;;;;;;;;;;;;;1.01;58.30;94245.75;4955187;28;19961;-63
2024/02/25 00:41:08;;;;;;;;;;;;;;;1.22;61.96;94237.56;4954293;28;19996;-64
2024/02/25 00:43:33;;;;;;;;;;;;;;;1.19;62.40;94236.06;4955009;28;19965;-64
2024/02/25 00:45:58;;;;;;;;;;;;;;;1.26;61.32;94241.50;4954827;28;19918;-63
2024/02/25 00:48:24;;;;;;;;;;;;;;;1.30;62.09;94237.59;4951865;28;19949;-62
2024/02/25 00:50:49;;;;;;;;;;;;;;;1.35;60.65;94243.22;4953341;28;20328;-63
2024/02/25 00:53:16;;;;;;;;;;;;;;;1.31;60.24;94236.66;4954514;28;20002;-63
2024/02/25 00:55:41;;;;;;;;;;;;;;;1.44;61.56;94243.28;4955238;28;20005;-62
2024/02/25 00:58:06;;;;;;;;;;;;;;;1.37;61.11;94233.38;4954769;28;20725;-63
2024/02/25 01:00:31;;;;;;;;;;;;;;;1.31;62.03;94239.28;4954421;28;22179;-64
2024/02/25 01:02:57;;;;;;;;;;;;;;;1.32;61.95;94230.41;4954100;28;20526;-65
2024/02/25 01:05:23;;;;;;;;;;;;;;;1.21;60.80;94231.50;4954794;28;20590;-64
2024/02/25 01:07:49;;;;;;;;;;;;;;;1.21;57.77;94225.44;4954725;28;20396;-63
2024/02/25 01:10:14;;;;;;;;;;;;;;;0.58;55.63;94228.06;4955410;28;19972;-64
2024/02/25 01:12:39;;;;;;;;;;;;;;;0.55;63.63;94230.97;4954464;28;19968;-64
2024/02/25 01:15:05;;;;;;;;;;;;;;;0.90;59.79;94231.09;4954550;28;19918;-63
2024/02/25 01:17:30;;;;;;;;;;;;;;;1.22;60.87;94229.69;4954524;28;19932;-64
2024/02/25 01:19:55;;;;;;;;;;;;;;;1.26;60.31;94225.78;4954761;28;19945;-63
2024/02/25 01:22:20;;;;;;;;;;;;;;;1.60;62.31;94221.59;4954134;28;19926;-63
2024/02/25 01:24:46;;;;;;;;;;;;;;;1.56;58.26;94221.06;4954491;28;20451;-64
2024/02/25 01:27:11;;;;;;;;;;;;;;;1.79;62.00;94233.66;4953559;28;20468;-64
2024/02/25 01:29:38;;;;;;;;;;;;;;;1.89;56.39;94225.66;4954947;28;19930;-64
2024/02/25 01:32:04;;;;;;;;;;;;;;;1.84;56.69;94225.31;4953957;28;19941;-64
2024/02/25 01:34:29;;;;;;;;;;;;;;;1.58;60.51;94232.25;4953957;28;19926;-64
2024/02/25 01:36:54;;;;;;;;;;;;;;;1.49;59.48;94230.50;4953626;28;19926;-64
2024/02/25 01:39:22;;;;;;;;;;;;;;;1.83;61.61;94218.41;4954234;28;19986;-63
2024/02/25 01:41:48;;;;;;;;;;;;;;;1.94;59.25;94210.25;4953537;28;19937;-63
2024/02/25 01:44:13;;;;;;;;;;;;;;;1.43;54.67;94218.03;4954228;28;19922;-63
2024/02/25 01:46:40;;;;;;;;;;;;;;;1.55;63.65;94215.97;4950615;28;20336;-65
2024/02/25 01:49:05;;;;;;;;;;;;;;;1.73;62.16;94214.09;4950583;28;19997;-65
2024/02/25 01:51:30;;;;;;;;;;;;;;;1.43;55.28;94210.16;4952565;28;19930;-64
2024/02/25 01:53:55;;;;;;;;;;;;;;;0.93;59.86;94207.22;4953148;28;20452;-64
2024/02/25 01:56:21;;;;;;;;;;;;;;;1.20;56.44;94211.47;4953955;28;19985;-63
2024/02/25 01:58:46;;;;;;;;;;;;;;;1.57;56.69;94206.16;4954293;28;19918;-65
2024/02/25 02:01:11;;;;;;;;;;;;;;;1.90;60.43;94198.41;4953600;28;20349;-64
2024/02/25 02:03:37;;;;;;;;;;;;;;;1.64;55.85;94207.19;4952303;28;20204;-63
2024/02/25 02:06:02;;;;;;;;;;;;;;;1.81;54.42;94207.25;4954131;28;19922;-65
2024/02/25 02:08:27;;;;;;;;;;;;;;;1.96;56.20;94197.78;4954074;28;19933;-64
2024/02/25 02:10:52;;;;;;;;;;;;;;;1.70;54.06;94190.81;4954353;28;20032;-64
2024/02/25 02:13:21;;;;;;;;;;;;;;;1.78;58.48;94186.56;4953689;28;19922;-63
2024/02/25 02:15:46;;;;;;;;;;;;;;;1.25;58.30;94182.19;4953565;28;19926;-64
2024/02/25 02:18:12;;;;;;;;;;;;;;;1.61;61.34;94184.69;4951046;28;19929;-64
2024/02/25 02:20:38;;;;;;;;;;;;;;;1.78;59.68;94178.69;4968265;28;20108;-65
2024/02/25 02:23:03;;;;;;;;;;;;;;;1.78;58.95;94179.53;4953867;28;19980;-65
2024/02/25 02:25:28;;;;;;;;;;;;;;;1.91;61.54;94165.13;4953163;28;19934;-64
2024/02/25 02:27:54;;;;;;;;;;;;;;;1.06;56.18;94162.25;4953820;28;20665;-63
2024/02/25 02:30:19;;;;;;;;;;;;;;;1.69;58.61;94157.69;4954809;28;20029;-63
2024/02/25 02:32:44;;;;;;;;;;;;;;;1.73;60.14;94160.78;4950112;28;20244;-64
2024/02/25 02:35:09;;;;;;;;;;;;;;;1.98;60.39;94160.88;4958032;28;19932;-64
2024/02/25 02:37:35;;;;;;;;;;;;;;;1.93;54.00;94155.28;4958130;28;19961;-64
2024/02/25 02:40:00;;;;;;;;;;;;;;;1.81;55.28;94168.69;4958203;28;19961;-64
2024/02/25 02:42:25;;;;;;;;;;;;;;;1.15;58.65;94163.09;4955893;28;19930;-63
2024/02/25 02:44:50;;;;;;;;;;;;;;;0.74;61.59;94169.72;4958196;28;19926;-65
2024/02/25 02:47:17;;;;;;;;;;;;;;;1.10;58.36;94168.84;4956734;28;20281;-64
2024/02/25 02:49:43;;;;;;;;;;;;;;;1.44;59.41;94172.47;4957797;28;20028;-63
2024/02/25 02:52:08;;;;;;;;;;;;;;;1.51;53.76;94173.47;4955041;28;20672;-64
2024/02/25 02:54:33;;;;;;;;;;;;;;;0.73;58.08;94166.28;4957947;28;19970;-63
2024/02/25 02:56:58;;;;;;;;;;;;;;;1.36;60.30;94175.84;4959083;28;19926;-65
2024/02/25 02:59:24;;;;;;;;;;;;;;;1.56;62.26;94175.66;4957232;28;20830;-63
2024/02/25 03:01:49;;;;;;;;;;;;;;;1.83;57.55;94168.53;4955528;28;19961;-65
2024/02/25 03:04:14;;;;;;;;;;;;;;;1.81;56.45;94160.00;4956370;28;20380;-63
2024/02/25 03:06:40;;;;;;;;;;;;;;;2.12;59.93;94155.00;4957457;28;19922;-64
2024/02/25 03:09:05;;;;;;;;;;;;;;;2.01;55.39;94157.94;4957372;28;19934;-64
2024/02/25 03:11:30;;;;;;;;;;;;;;;2.11;56.73;94148.09;4956456;28;19975;-64
2024/02/25 03:13:55;;;;;;;;;;;;;;;2.19;61.77;94139.44;4957311;28;20750;-64
2024/02/25 03:16:21;;;;;;;;;;;;;;;1.60;54.50;94146.31;4955597;28;19918;-64
2024/02/25 03:18:46;;;;;;;;;;;;;;;1.87;58.93;94149.69;4951992;28;19930;-65
2024/02/25 03:21:11;;;;;;;;;;;;;;;2.10;61.05;94145.63;4956731;28;19923;-64
2024/02/25 03:23:37;;;;;;;;;;;;;;;2.23;61.26;94138.13;4957600;28;20002;-64
2024/02/25 03:26:02;;;;;;;;;;;;;;;1.95;61.00;94140.19;4958313;28;19995;-65
2024/02/25 03:28:27;;;;;;;;;;;;;;;2.14;59.75;94137.28;4955547;28;20391;-64
2024/02/25 03:30:52;;;;;;;;;;;;;;;1.95;53.79;94138.41;4957143;28;20040;-64
2024/02/25 03:33:18;;;;;;;;;;;;;;;0.77;54.22;94156.34;4957268;28;19922;-65
2024/02/25 03:35:43;;;;;;;;;;;;;;;1.54;55.87;94156.63;4957235;28;20300;-64
2024/02/25 03:38:08;;;;;;;;;;;;;;;1.91;60.07;94157.25;4956951;28;19925;-64
2024/02/25 03:40:33;;;;;;;;;;;;;;;1.83;58.06;94148.38;4959311;28;19932;-64
2024/02/25 03:42:59;;;;;;;;;;;;;;;1.05;54.08;94148.31;4957194;28;19978;-64
2024/02/25 03:45:24;;;;;;;;;;;;;;;1.91;60.92;94146.75;4955185;28;20008;-63
2024/02/25 03:47:49;;;;;;;;;;;;;;;1.44;60.92;94159.34;4956593;28;19921;-64
2024/02/25 03:50:15;;;;;;;;;;;;;;;1.21;60.52;94146.78;4956882;28;19969;-63
2024/02/25 03:52:40;;;;;;;;;;;;;;;1.65;59.76;94150.28;4956024;28;19926;-63
2024/02/25 03:55:06;;;;;;;;;;;;;;;1.88;60.01;94148.72;4956903;28;19993;-63
2024/02/25 03:57:31;;;;;;;;;;;;;;;1.92;60.08;94151.84;4945136;28;20110;-63
2024/02/25 03:59:56;;;;;;;;;;;;;;;2.03;60.05;94150.72;4963378;28;19928;-63
2024/02/25 04:02:21;;;;;;;;;;;;;;;2.09;57.40;94144.84;4955402;28;20345;-64
2024/02/25 04:04:47;;;;;;;;;;;;;;;2.23;60.05;94148.63;4956029;28;19969;-65
2024/02/25 04:07:12;;;;;;;;;;;;;;;2.26;62.17;94147.47;4956999;28;19961;-65
2024/02/25 04:09:38;;;;;;;;;;;;;;;2.42;60.28;94146.69;4956456;28;19926;-63
2024/02/25 04:12:03;;;;;;;;;;;;;;;2.34;61.46;94144.84;4956407;28;20323;-64
2024/02/25 04:14:28;;;;;;;;;;;;;;;2.52;60.08;94141.28;4956477;28;19988;-65
2024/02/25 04:16:53;;;;;;;;;;;;;;;2.34;58.32;94142.22;4955961;28;19929;-63
2024/02/25 04:19:19;;;;;;;;;;;;;;;2.25;59.83;94146.66;4948435;28;20477;-63
2024/02/25 04:21:44;;;;;;;;;;;;;;;2.22;52.88;94135.66;4955962;28;19971;-64
2024/02/25 04:24:09;;;;;;;;;;;;;;;2.42;60.88;94138.81;4957395;28;20049;-64
2024/02/25 04:26:35;;;;;;;;;;;;;;;2.34;56.31;94142.22;4955495;28;20306;-64
2024/02/25 04:29:00;;;;;;;;;;;;;;;2.07;59.12;94140.69;4955431;28;19930;-63
2024/02/25 04:31:25;;;;;;;;;;;;;;;2.25;60.26;94137.97;4956730;28;19926;-63
2024/02/25 04:33:50;;;;;;;;;;;;;;;1.48;53.35;94150.19;4961176;28;20381;-64
2024/02/25 04:36:17;;;;;;;;;;;;;;;1.84;60.70;94142.13;4958085;28;19992;-64
2024/02/25 04:38:43;;;;;;;;;;;;;;;1.92;59.72;94140.50;4959768;28;19923;-63
2024/02/25 04:41:08;;;;;;;;;;;;;;;0.78;58.85;94146.69;4955731;28;19976;-63
2024/02/25 04:43:35;;;;;;;;;;;;;;;0.82;57.28;94146.22;4955767;28;20012;-64
2024/02/25 04:46:00;;;;;;;;;;;;;;;1.44;60.35;94146.22;4955520;28;19933;-63
2024/02/25 04:48:26;;;;;;;;;;;;;;;1.79;61.84;94143.59;4955341;28;19922;-63
2024/02/25 04:50:54;;;;;;;;;;;;;;;1.75;57.57;94143.09;4955868;28;19933;-63
2024/02/25 04:53:19;;;;;;;;;;;;;;;2.06;60.59;94144.31;4962076;28;20012;-64
2024/02/25 04:55:44;;;;;;;;;;;;;;;1.79;59.52;94149.66;4956244;28;20008;-63
2024/02/25 04:58:10;;;;;;;;;;;;;;;2.01;55.51;94142.19;4955024;28;19952;-63
2024/02/25 05:00:35;;;;;;;;;;;;;;;2.10;61.04;94141.22;4960923;28;19969;-63
2024/02/25 05:03:01;;;;;;;;;;;;;;;1.99;55.76;94142.34;4955627;28;19961;-64
2024/02/25 05:05:26;;;;;;;;;;;;;;;0.91;57.64;94146.25;4955648;28;19965;-63
2024/02/25 05:07:52;;;;;;;;;;;;;;;1.57;59.08;94148.44;4952265;28;20463;-63
2024/02/25 05:10:17;;;;;;;;;;;;;;;1.79;62.23;94136.56;4955362;28;19969;-64
2024/02/25 05:12:43;;;;;;;;;;;;;;;1.72;60.02;94127.66;4955674;28;20615;-63
2024/02/25 05:15:09;;;;;;;;;;;;;;;1.80;53.97;94135.56;4955501;28;19922;-62
2024/02/25 05:17:35;;;;;;;;;;;;;;;1.75;54.38;94132.59;4955211;28;19926;-63
2024/02/25 05:20:00;;;;;;;;;;;;;;;1.84;58.03;94142.13;4950538;28;20019;-63
2024/02/25 05:22:25;;;;;;;;;;;;;;;1.17;55.08;94151.50;4973511;28;19926;-63
2024/02/25 05:24:50;;;;;;;;;;;;;;;1.09;58.87;94149.66;4954745;28;20012;-64
2024/02/25 05:27:15;;;;;;;;;;;;;;;1.35;55.94;94143.56;4955548;28;19930;-63
2024/02/25 05:29:42;;;;;;;;;;;;;;;1.59;60.57;94144.69;4954528;28;19996;-63
2024/02/25 05:32:08;;;;;;;;;;;;;;;0.26;60.49;94145.59;4956154;28;20734;-63
2024/02/25 05:34:33;;;;;;;;;;;;;;;1.21;57.08;94154.63;4954860;28;19930;-64
2024/02/25 05:36:58;;;;;;;;;;;;;;;1.36;58.00;94147.84;4955279;28;20621;-64
2024/02/25 05:39:24;;;;;;;;;;;;;;;0.70;58.83;94150.88;4955417;28;19926;-63
2024/02/25 05:41:49;;;;;;;;;;;;;;;0.59;60.94;94153.75;4955079;28;19985;-64
2024/02/25 05:44:15;;;;;;;;;;;;;;;0.17;60.00;94148.16;4950924;28;19930;-64
2024/02/25 05:46:40;;;;;;;;;;;;;;;-0.96;61.59;94144.75;4946335;28;19922;-64
2024/02/25 05:49:06;;;;;;;;;;;;;;;0.34;60.35;94156.97;4951954;28;19926;-63
2024/02/25 05:51:31;;;;;;;;;;;;;;;0.44;61.80;94153.44;4955316;28;19957;-65
2024/02/25 05:53:56;;;;;;;;;;;;;;;0.76;62.82;94149.47;4952676;28;19923;-64
2024/02/25 05:56:21;;;;;;;;;;;;;;;0.94;60.73;94152.03;4954882;28;19926;-64
2024/02/25 05:58:47;;;;;;;;;;;;;;;1.32;60.98;94149.13;4955358;28;19954;-63
2024/02/25 06:01:12;;;;;;;;;;;;;;;1.37;60.87;94152.09;4954747;28;20032;-65
2024/02/25 06:03:37;;;;;;;;;;;;;;;-0.40;59.40;94158.84;4954970;28;19922;-63
2024/02/25 06:06:03;;;;;;;;;;;;;;;0.77;62.08;94155.50;4954750;28;20561;-63
2024/02/25 06:08:28;;;;;;;;;;;;;;;1.01;59.18;94160.09;4954796;28;19918;-65
2024/02/25 06:10:53;;;;;;;;;;;;;;;0.36;61.42;94150.75;4958970;28;19926;-63
2024/02/25 06:13:18;;;;;;;;;;;;;;;0.87;61.19;94152.78;4958630;28;19926;-64
2024/02/25 06:15:44;;;;;;;;;;;;;;;1.35;59.33;94158.47;4959238;28;19969;-64
2024/02/25 06:18:10;;;;;;;;;;;;;;;1.41;58.63;94159.66;4955473;28;19958;-63
2024/02/25 06:20:35;;;;;;;;;;;;;;;1.46;58.62;94165.25;4952795;28;19926;-64
2024/02/25 06:23:00;;;;;;;;;;;;;;;1.49;60.72;94157.06;4958634;28;20506;-64
2024/02/25 06:25:26;;;;;;;;;;;;;;;1.68;60.25;94155.22;4958448;28;19953;-64
2024/02/25 06:27:51;;;;;;;;;;;;;;;0.85;60.35;94159.00;4958738;28;19972;-64
2024/02/25 06:30:16;;;;;;;;;;;;;;;1.19;60.60;94156.59;4958197;28;20474;-65
2024/02/25 06:32:41;;;;;;;;;;;;;;;1.62;61.00;94154.88;4944849;28;19926;-64
2024/02/25 06:35:07;;;;;;;;;;;;;;;0.56;59.83;94165.34;4961428;28;20339;-63
2024/02/25 06:37:32;;;;;;;;;;;;;;;1.14;61.52;94166.72;4958291;28;20645;-64
2024/02/25 06:39:57;;;;;;;;;;;;;;;1.64;57.45;94169.63;4958497;28;20330;-64
2024/02/25 06:42:22;;;;;;;;;;;;;;;0.84;59.99;94167.84;4958039;28;19937;-64
2024/02/25 06:44:48;;;;;;;;;;;;;;;0.70;61.74;94169.22;4949548;28;19934;-65
2024/02/25 06:47:13;;;;;;;;;;;;;;;1.22;61.69;94166.75;4968263;28;20076;-65
2024/02/25 06:49:41;;;;;;;;;;;;;;;0.74;57.20;94180.22;4957666;28;19929;-64
2024/02/25 06:52:07;;;;;;;;;;;;;;;1.04;57.99;94175.53;4958042;28;19926;-64
2024/02/25 06:54:32;;;;;;;;;;;;;;;-0.22;60.34;94172.78;4957660;28;19980;-64
2024/02/25 06:56:58;;;;;;;;;;;;;;;0.85;58.66;94176.50;4958320;28;19977;-63
2024/02/25 06:59:23;;;;;;;;;;;;;;;-1.35;66.57;94176.97;4968249;28;20442;-64
2024/02/25 07:01:48;;;;;;;;;;;;;;;0.64;63.23;94182.09;4957954;28;19922;-63
2024/02/25 07:04:14;;;;;;;;;;;;;;;0.67;59.25;94181.78;4958253;28;19962;-63
2024/02/25 07:06:39;;;;;;;;;;;;;;;0.90;58.73;94183.94;4972090;28;20025;-63
2024/02/25 07:09:04;;;;;;;;;;;;;;;0.53;59.01;94188.38;4957549;28;19926;-64
2024/02/25 07:11:31;;;;;;;;;;;;;;;0.54;59.79;94183.00;4957785;28;19922;-63
2024/02/25 07:13:56;;;;;;;;;;;;;;;0.94;61.14;94185.28;4950139;28;19981;-63
2024/02/25 07:16:21;;;;;;;;;;;;;;;1.18;60.48;94183.78;4957288;28;19952;-63
2024/02/25 07:18:46;;;;;;;;;;;;;;;1.23;58.31;94192.03;4956777;28;19925;-63
2024/02/25 07:21:13;;;;;;;;;;;;;;;1.53;58.13;94197.78;4956821;28;19926;-64
2024/02/25 07:23:41;;;;;;;;;;;;;;;0.69;57.63;94192.94;4956060;28;20384;-64
2024/02/25 07:26:07;;;;;;;;;;;;;;;-0.36;63.70;94202.03;4957218;28;19937;-63
2024/02/25 07:28:33;;;;;;;;;;;;;;;0.54;60.18;94197.88;4957336;28;20347;-63
2024/02/25 07:31:01;;;;;;;;;;;;;;;0.83;58.21;94202.91;4956279;28;19926;-63
2024/02/25 07:33:26;;;;;;;;;;;;;;;1.42;57.16;94196.22;4944866;28;19933;-63
2024/02/25 07:35:51;;;;;;;;;;;;;;;1.28;57.34;94200.25;4957325;28;19926;-63
2024/02/25 07:38:17;;;;;;;;;;;;;;;1.14;60.22;94195.56;4957068;28;20496;-63
2024/02/25 07:40:42;;;;;;;;;;;;;;;1.67;60.48;94212.09;4956395;28;19957;-63
2024/02/25 07:43:07;;;;;;;;;;;;;;;1.23;59.63;94207.75;4957395;28;19926;-64
2024/02/25 07:45:32;;;;;;;;;;;;;;;0.60;61.96;94199.91;4956128;28;20094;-64
2024/02/25 07:47:58;;;;;;;;;;;;;;;1.08;60.18;94200.44;4957268;28;20016;-65
2024/02/25 07:50:23;;;;;;;;;;;;;;;0.32;62.14;94200.84;4956711;28;20724;-65
2024/02/25 07:52:48;;;;;;;;;;;;;;;0.36;64.41;94201.34;4956756;28;20685;-63
2024/02/25 07:55:14;;;;;;;;;;;;;;;1.32;58.63;94201.56;4955016;28;20367;-63
2024/02/25 07:57:39;;;;;;;;;;;;;;;0.82;62.44;94201.22;4956882;28;19922;-64
2024/02/25 08:00:04;;;;;;;;;;;;;;;0.69;63.32;94208.66;4957100;28;19930;-63
2024/02/25 08:02:33;;;;;;;;;;;;;;;1.35;61.54;94201.28;4956782;28;19964;-63
2024/02/25 08:04:59;;;;;;;;;;;;;;;1.77;60.71;94193.59;4956280;28;19926;-63
2024/02/25 08:07:24;;;;;;;;;;;;;;;1.77;58.05;94195.44;4952757;28;19984;-65
2024/02/25 08:09:49;;;;;;;;;;;;;;;2.24;59.80;94194.91;4955928;28;19972;-65
2024/02/25 08:12:14;;;;;;;;;;;;;;;2.03;56.41;94205.00;4956703;28;19985;-64
2024/02/25 08:14:39;;;;;;;;;;;;;;;0.98;60.23;94205.78;4956129;28;19934;-65
2024/02/25 08:17:05;;;;;;;;;;;;;;;1.74;57.86;94207.88;4956365;28;19929;-65
2024/02/25 08:19:30;;;;;;;;;;;;;;;1.90;55.92;94200.25;4950464;28;19957;-65
2024/02/25 08:21:55;;;;;;;;;;;;;;;0.93;57.25;94207.22;4956035;28;19953;-64
2024/02/25 08:24:21;;;;;;;;;;;;;;;0.29;61.51;94214.22;4955825;28;20302;-64
2024/02/25 08:26:46;;;;;;;;;;;;;;;1.19;58.23;94209.84;4955819;28;19926;-64
2024/02/25 08:29:11;;;;;;;;;;;;;;;0.98;58.20;94212.81;4956022;28;20069;-63
2024/02/25 08:31:36;;;;;;;;;;;;;;;1.02;58.07;94211.53;4954749;28;20024;-63
2024/02/25 08:34:02;;;;;;;;;;;;;;;1.05;58.64;94213.84;4955785;28;19933;-63
2024/02/25 08:36:28;;;;;;;;;;;;;;;0.92;58.48;94213.44;4955833;28;20026;-63
2024/02/25 08:38:53;;;;;;;;;;;;;;;0.34;60.69;94209.34;4956553;28;19922;-65
2024/02/25 08:41:18;;;;;;;;;;;;;;;-0.73;63.19;94212.38;4956073;28;19931;-63
2024/02/25 08:43:43;;;;;;;;;;;;;;;0.59;59.77;94214.00;4953554;28;19933;-64
2024/02/25 08:46:09;;;;;;;;;;;;;;;1.65;59.64;94203.59;4954930;28;19961;-63
2024/02/25 08:48:34;;;;;;;;;;;;;;;-0.33;65.38;94207.00;4951360;28;20653;-64
2024/02/25 08:50:59;;;;;;;;;;;;;;;0.56;63.39;94215.13;4955942;28;19989;-64
2024/02/25 08:53:24;;;;;;;;;;;;;;;1.09;60.38;94220.44;4948008;28;19922;-63
2024/02/25 08:55:51;;;;;;;;;;;;;;;1.66;59.61;94215.72;4949849;28;20013;-65
2024/02/25 08:58:16;;;;;;;;;;;;;;;0.98;60.40;94218.88;4950110;28;20517;-64
2024/02/25 09:00:44;;;;;;;;;;;;;;;0.47;62.01;94218.63;4954411;28;19933;-64
2024/02/25 09:03:10;;;;;;;;;;;;;;;0.28;61.81;94230.06;4955314;28;19925;-63
2024/02/25 09:05:35;;;;;;;;;;;;;;;1.28;59.86;94215.97;4954419;28;20307;-65
2024/02/25 09:08:00;;;;;;;;;;;;;;;1.43;58.65;94210.97;4954615;28;20093;-64
2024/02/25 09:10:26;;;;;;;;;;;;;;;0.85;59.38;94218.44;4955183;28;19972;-64
2024/02/25 09:12:52;;;;;;;;;;;;;;;1.09;59.60;94209.94;4954433;28;19933;-64
2024/02/25 09:15:19;;;;;;;;;;;;;;;0.54;61.26;94219.66;4953038;28;19957;-63
2024/02/25 09:17:44;;;;;;;;;;;;;;;1.54;60.70;94216.97;4954414;28;19926;-64
2024/02/25 09:20:10;;;;;;;;;;;;;;;2.05;57.63;94217.03;4954773;28;19984;-65
2024/02/25 09:22:35;;;;;;;;;;;;;;;2.45;56.48;94219.09;4953852;28;19922;-63
2024/02/25 09:25:00;;;;;;;;;;;;;;;2.12;55.74;94223.25;4954126;28;19964;-64
2024/02/25 09:27:26;;;;;;;;;;;;;;;2.44;56.06;94215.63;4954725;28;20490;-63
2024/02/25 09:29:51;;;;;;;;;;;;;;;2.38;57.12;94219.72;4953854;28;20631;-65
2024/02/25 09:32:16;;;;;;;;;;;;;;;2.37;56.24;94223.34;4952913;28;19926;-63
2024/02/25 09:34:43;;;;;;;;;;;;;;;1.71;56.30;94229.19;4954257;28;19926;-64
2024/02/25 09:37:09;;;;;;;;;;;;;;;2.86;56.29;94229.63;4954154;28;19926;-63
2024/02/25 09:39:34;;;;;;;;;;;;;;;2.45;55.66;94224.34;4954357;28;20039;-64
2024/02/25 09:41:59;;;;;;;;;;;;;;;2.03;57.13;94233.91;4954043;28;19961;-63
2024/02/25 09:44:25;;;;;;;;;;;;;;;2.25;59.17;94225.44;4954944;28;19922;-63
2024/02/25 09:46:51;;;;;;;;;;;;;;;2.76;57.29;94223.72;4958380;28;20718;-64
2024/02/25 09:49:16;;;;;;;;;;;;;;;3.52;54.83;94220.91;4957748;28;20310;-63
2024/02/25 09:51:42;;;;;;;;;;;;;;;3.70;51.67;94213.78;4959764;28;19922;-63
2024/02/25 09:54:07;;;;;;;;;;;;;;;3.48;51.92;94218.78;4958235;28;19928;-63
2024/02/25 09:56:32;;;;;;;;;;;;;;;1.36;58.76;94229.13;4957631;28;19922;-63
2024/02/25 09:58:58;;;;;;;;;;;;;;;2.17;59.47;94216.75;4957860;28;20721;-63
2024/02/25 10:01:24;;;;;;;;;;;;;;;3.09;54.83;94215.03;4957615;28;19922;-64
2024/02/25 10:03:49;;;;;;;;;;;;;;;2.71;55.37;94226.00;4958206;28;20645;-65
2024/02/25 10:06:15;;;;;;;;;;;;;;;3.76;55.12;94208.66;4957535;28;19969;-64
2024/02/25 10:08:45;;;;;;;;;;;;;;;2.00;55.96;94214.88;4957611;28;19930;-63
2024/02/25 10:11:10;;;;;;;;;;;;;;;2.57;59.31;94203.81;4957359;28;19969;-63
2024/02/25 10:13:36;;;;;;;;;;;;;;;2.39;56.03;94196.91;4957969;28;20406;-64
2024/02/25 10:16:01;;;;;;;;;;;;;;;2.81;56.96;94204.81;4958625;28;19933;-64
2024/02/25 10:18:26;;;;;;;;;;;;;;;2.75;57.23;94190.53;4957559;28;19929;-64
2024/02/25 10:20:53;;;;;;;;;;;;;;;4.15;54.71;94198.28;4957055;28;20009;-64
2024/02/25 10:23:19;;;;;;;;;;;;;;;3.17;54.25;94193.97;4957884;28;19928;-63
2024/02/25 10:25:44;;;;;;;;;;;;;;;2.24;54.92;94202.78;4955581;28;19934;-64
2024/02/25 10:28:18;;;;;;;;;;;;;;;3.13;56.19;94188.22;4957721;28;19922;-63
2024/02/25 10:30:59;;;;;;;;;;;;;;;3.81;52.86;94190.53;4957493;28;19969;-63
2024/02/25 10:33:24;;;;;;;;;;;;;;;3.48;53.37;94184.56;4957370;28;20029;-64
2024/02/25 10:35:49;;;;;;;;;;;;;;;3.57;52.72;94188.00;4958181;28;19922;-64
2024/02/25 10:38:14;;;;;;;;;;;;;;;3.38;51.14;94188.19;4972649;28;20632;-63
2024/02/25 10:40:40;;;;;;;;;;;;;;;4.03;53.12;94190.78;4957722;28;19922;-63
2024/02/25 10:43:05;;;;;;;;;;;;;;;3.48;53.48;94195.09;4973004;28;19918;-63
2024/02/25 10:45:30;;;;;;;;;;;;;;;3.62;51.89;94183.88;4972030;28;19957;-63
2024/02/25 10:47:55;;;;;;;;;;;;;;;4.03;49.98;94195.22;4971984;28;19922;-63
2024/02/25 10:50:21;;;;;;;;;;;;;;;3.58;51.58;94187.00;4955266;28;19976;-64
2024/02/25 10:52:46;;;;;;;;;;;;;;;3.86;51.66;94191.81;4956611;28;19962;-64
2024/02/25 10:55:11;;;;;;;;;;;;;;;3.98;49.67;94179.91;4956443;28;19929;-64
2024/02/25 10:57:39;;;;;;;;;;;;;;;4.45;52.73;94174.72;4955335;28;19956;-63
2024/02/25 11:00:05;;;;;;;;;;;;;;;4.90;48.14;94177.50;4971827;28;19922;-64
2024/02/25 11:02:30;;;;;;;;;;;;;;;5.18;48.96;94181.44;4957775;28;20409;-64
2024/02/25 11:04:58;;;;;;;;;;;;;;;5.29;46.96;94177.53;4957405;28;19926;-64
2024/02/25 11:07:23;;;;;;;;;;;;;;;4.99;48.43;94174.84;4958106;28;19995;-64
2024/02/25 11:09:48;;;;;;;;;;;;;;;5.15;45.85;94182.63;4957556;28;20633;-65
2024/02/25 11:12:23;;;;;;;;;;;;;;;5.35;50.03;94163.63;4957432;28;19930;-64
2024/02/25 11:14:53;;;;;;;;;;;;;;;4.55;46.63;94175.31;4958193;28;20494;-63
2024/02/25 11:17:27;;;;;;;;;;;;;;;4.07;47.71;94170.16;4957759;28;20000;-64
2024/02/25 11:20:08;;;;;;;;;;;;;;;2.75;52.86;94177.38;4957724;28;19929;-65
2024/02/25 11:22:52;;;;;;;;;;;;;;;2.66;50.88;94187.09;4953459;28;19929;-64
2024/02/25 11:25:26;;;;;;;;;;;;;;;3.66;50.59;94172.00;4950658;28;20980;-64
2024/02/25 11:27:57;;;;;;;;;;;;;;;2.45;51.33;94166.56;4945719;28;20175;-64
2024/02/25 11:30:23;;;;;;;;;;;;;;;3.91;48.70;94168.47;4957364;28;19969;-63
2024/02/25 11:32:48;;;;;;;;;;;;;;;4.04;46.18;94165.25;4970734;28;20013;-63
2024/02/25 11:35:15;;;;;;;;;;;;;;;3.72;50.63;94164.41;4957123;28;19954;-63
2024/02/25 11:37:43;;;;;;;;;;;;;;;4.02;45.97;94154.88;4957175;28;19922;-61
2024/02/25 11:40:09;;;;;;;;;;;;;;;4.04;46.89;94157.34;4957557;28;19919;-62
2024/02/25 11:42:34;;;;;;;;;;;;;;;4.47;48.83;94156.09;4956184;28;19972;-63
2024/02/25 11:44:59;;;;;;;;;;;;;;;3.65;49.60;94164.28;4952552;28;19926;-64
2024/02/25 11:47:25;;;;;;;;;;;;;;;4.43;51.60;94155.63;4956999;28;20488;-64
2024/02/25 11:49:51;;;;;;;;;;;;;;;2.77;52.92;94159.66;4953423;28;20091;-63
2024/02/25 11:52:16;;;;;;;;;;;;;;;4.04;51.40;94149.44;4957379;28;20029;-63
2024/02/25 11:54:42;;;;;;;;;;;;;;;4.56;47.81;94157.69;4956847;28;20052;-64
2024/02/25 11:57:07;;;;;;;;;;;;;;;3.53;52.60;94155.91;4957033;28;20473;-64
2024/02/25 11:59:34;;;;;;;;;;;;;;;4.75;49.37;94145.84;4970913;28;19918;-63
2024/02/25 12:01:59;;;;;;;;;;;;;;;2.58;52.52;94156.38;4955097;28;19926;-63
2024/02/25 12:04:25;;;;;;;;;;;;;;;4.09;49.68;94148.94;4970193;28;19932;-64
2024/02/25 12:06:50;;;;;;;;;;;;;;;4.22;46.92;94151.81;4955454;28;19953;-63
2024/02/25 12:09:15;;;;;;;;;;;;;;;4.89;49.40;94149.50;4956566;28;20017;-61
2024/02/25 12:11:41;;;;;;;;;;;;;;;5.31;47.05;94141.25;4956685;28;19985;-63
2024/02/25 12:14:26;;;;;;;;;;;;;;;5.54;44.65;94140.34;4956446;28;19996;-63
2024/02/25 12:16:52;;;;;;;;;;;;;;;5.59;43.20;94144.06;4956887;28;19926;-64
2024/02/25 12:19:17;;;;;;;;;;;;;;;5.12;44.66;94142.56;4955922;28;19929;-63
2024/02/25 12:21:43;;;;;;;;;;;;;;;5.38;44.60;94136.88;4955016;28;19926;-63
2024/02/25 12:24:10;;;;;;;;;;;;;;;5.30;43.94;94134.31;4955707;28;19922;-63
2024/02/25 12:27:07;;;;;;;;;;;;;;;4.25;45.91;94143.56;4956129;28;20032;-64
2024/02/25 12:29:38;;;;;;;;;;;;;;;3.32;47.90;94130.13;4938693;28;20149;-64
2024/02/25 12:32:06;;;;;;;;;;;;;;;4.44;44.33;94138.81;4953364;28;19926;-62
2024/02/25 12:34:32;;;;;;;;;;;;;;;4.73;46.76;94133.84;4955177;28;19926;-63
2024/02/25 12:36:57;;;;;;;;;;;;;;;6.09;40.89;94122.28;4954843;28;19922;-64
2024/02/25 12:39:23;;;;;;;;;;;;;;;5.83;46.15;94120.16;4956284;28;19922;-63
2024/02/25 12:41:59;;;;;;;;;;;;;;;4.69;45.90;94125.44;4953415;28;19937;-63
2024/02/25 12:44:25;;;;;;;;;;;;;;;6.10;38.00;94123.13;4954568;28;19918;-64
2024/02/25 12:46:51;;;;;;;;;;;;;;;6.25;39.09;94117.78;4955390;28;20214;-64
2024/02/25 12:49:16;;;;;;;;;;;;;;;6.55;41.21;94108.94;4954626;28;19926;-65
2024/02/25 12:51:42;;;;;;;;;;;;;;;5.03;44.30;94129.44;4955030;28;19957;-64